createdAt,value
2023-03-02T00:00:40.671Z,-1.94
2023-03-02T00:01:40.654Z,-1.92
2023-03-02T00:02:40.665Z,-1.90
2023-03-02T00:03:40.741Z,-1.89
2023-03-02T00:04:41.110Z,-1.87
2023-03-02T00:05:40.587Z,-1.87
2023-03-02T00:06:40.544Z,-1.83
2023-03-02T00:07:40.539Z,-1.82
2023-03-02T00:08:40.579Z,-1.83
2023-03-02T00:09:40.534Z,-1.83
2023-03-02T00:10:40.542Z,-1.84
2023-03-02T00:11:40.497Z,-1.86
2023-03-02T00:12:40.476Z,-1.84
2023-03-02T00:13:40.460Z,-1.84
2023-03-02T00:14:40.477Z,-1.83
2023-03-02T00:15:40.476Z,-1.82
2023-03-02T00:16:40.427Z,-1.80
2023-03-02T00:17:40.436Z,-1.79
2023-03-02T00:18:40.401Z,-1.77
2023-03-02T00:19:40.406Z,-1.79
2023-03-02T00:20:40.379Z,-1.79
2023-03-02T00:21:40.363Z,-1.77
2023-03-02T00:22:40.380Z,-1.76
2023-03-02T00:23:40.332Z,-1.79
2023-03-02T00:24:40.339Z,-1.77
2023-03-02T00:25:40.300Z,-1.76
2023-03-02T00:26:40.293Z,-1.76
2023-03-02T00:27:40.273Z,-1.74
2023-03-02T00:28:40.307Z,-1.74
2023-03-02T00:29:40.252Z,-1.76
2023-03-02T00:30:40.256Z,-1.74
2023-03-02T00:31:40.412Z,-1.74
2023-03-02T00:32:40.216Z,-1.79
2023-03-02T00:33:40.234Z,-1.84
2023-03-02T00:34:40.205Z,-1.86
2023-03-02T00:35:40.303Z,-1.86
2023-03-02T00:36:40.595Z,-1.87
2023-03-02T00:37:40.148Z,-1.87
2023-03-02T00:38:40.124Z,-1.86
2023-03-02T00:39:40.153Z,-1.84
2023-03-02T00:40:40.112Z,-1.83
2023-03-02T00:41:40.117Z,-1.83
2023-03-02T00:42:40.077Z,-1.82
2023-03-02T00:43:40.078Z,-1.80
2023-03-02T00:44:40.099Z,-1.77
2023-03-02T00:45:40.036Z,-1.76
2023-03-02T00:46:40.136Z,-1.72
2023-03-02T00:47:41.516Z,-1.71
2023-03-02T00:48:40.025Z,-1.72
2023-03-02T00:49:39.992Z,-1.76
2023-03-02T00:50:40.008Z,-1.74
2023-03-02T00:51:40.000Z,-1.72
2023-03-02T00:52:39.947Z,-1.74
2023-03-02T00:53:39.999Z,-1.74
2023-03-02T00:54:39.957Z,-1.74
2023-03-02T00:55:39.921Z,-1.76
2023-03-02T00:56:39.910Z,-1.74
2023-03-02T00:57:39.886Z,-1.76
2023-03-02T00:58:39.900Z,-1.79
2023-03-02T00:59:39.848Z,-1.77
2023-03-02T01:00:39.845Z,-1.77
2023-03-02T01:01:39.853Z,-1.77
2023-03-02T01:02:39.922Z,-1.77
2023-03-02T01:03:39.816Z,-1.74
2023-03-02T01:04:39.824Z,-1.72
2023-03-02T01:05:39.789Z,-1.72
2023-03-02T01:06:39.758Z,-1.71
2023-03-02T01:07:39.760Z,-1.72
2023-03-02T01:08:39.746Z,-1.72
2023-03-02T01:09:39.823Z,-1.71
2023-03-02T01:10:39.713Z,-1.68
2023-03-02T01:11:39.719Z,-1.68
2023-03-02T01:12:39.684Z,-1.66
2023-03-02T01:13:39.706Z,-1.66
2023-03-02T01:14:39.690Z,-1.65
2023-03-02T01:15:39.685Z,-1.62
2023-03-02T01:16:39.701Z,-1.64
2023-03-02T01:17:39.630Z,-1.62
2023-03-02T01:18:39.648Z,-1.61
2023-03-02T01:19:39.618Z,-1.61
2023-03-02T01:20:39.600Z,-1.61
2023-03-02T01:21:39.574Z,-1.59
2023-03-02T01:22:39.610Z,-1.59
2023-03-02T01:23:39.564Z,-1.58
2023-03-02T01:24:39.551Z,-1.59
2023-03-02T01:25:39.542Z,-1.61
2023-03-02T01:26:39.523Z,-1.61
2023-03-02T01:27:39.535Z,-1.62
2023-03-02T01:28:39.498Z,-1.61
2023-03-02T01:29:39.485Z,-1.61
2023-03-02T01:30:39.495Z,-1.61
2023-03-02T01:31:39.609Z,-1.59
2023-03-02T01:32:39.495Z,-1.62
2023-03-02T01:33:39.423Z,-1.65
2023-03-02T01:34:39.426Z,-1.66
2023-03-02T01:35:39.433Z,-1.68
2023-03-02T01:36:39.383Z,-1.66
2023-03-02T01:37:39.406Z,-1.62
2023-03-02T01:38:39.379Z,-1.64
2023-03-02T01:39:39.353Z,-1.66
2023-03-02T01:40:39.317Z,-1.66
2023-03-02T01:41:39.322Z,-1.66
2023-03-02T01:42:39.334Z,-1.65
2023-03-02T01:43:39.326Z,-1.65
2023-03-02T01:44:39.270Z,-1.66
2023-03-02T01:45:39.281Z,-1.68
2023-03-02T01:46:39.251Z,-1.66
2023-03-02T01:47:39.372Z,-1.69
2023-03-02T01:48:39.289Z,-1.69
2023-03-02T01:49:39.231Z,-1.72
2023-03-02T01:50:39.218Z,-1.79
2023-03-02T01:51:39.179Z,-1.80
2023-03-02T01:52:39.195Z,-1.84
2023-03-02T01:53:39.174Z,-1.84
2023-03-02T01:54:39.147Z,-1.87
2023-03-02T01:55:39.141Z,-1.89
2023-03-02T01:56:39.147Z,-1.87
2023-03-02T01:57:39.103Z,-1.89
2023-03-02T01:58:39.130Z,-1.87
2023-03-02T01:59:39.104Z,-1.86
2023-03-02T02:00:39.187Z,-1.84
2023-03-02T02:01:39.050Z,-1.83
2023-03-02T02:02:39.043Z,-1.83
2023-03-02T02:03:39.080Z,-1.82
2023-03-02T02:04:39.065Z,-1.82
2023-03-02T02:05:39.019Z,-1.80
2023-03-02T02:06:39.037Z,-1.79
2023-03-02T02:07:39.008Z,-1.80
2023-03-02T02:08:38.977Z,-1.79
2023-03-02T02:09:38.943Z,-1.79
2023-03-02T02:10:38.936Z,-1.77
2023-03-02T02:11:38.946Z,-1.76
2023-03-02T02:12:38.924Z,-1.77
2023-03-02T02:13:39.003Z,-1.80
2023-03-02T02:14:38.892Z,-1.84
2023-03-02T02:15:38.880Z,-1.83
2023-03-02T02:16:38.902Z,-1.87
2023-03-02T02:17:38.866Z,-1.89
2023-03-02T02:18:38.836Z,-1.87
2023-03-02T02:19:38.857Z,-1.87
2023-03-02T02:20:38.815Z,-1.87
2023-03-02T02:21:38.796Z,-1.86
2023-03-02T02:22:38.825Z,-1.87
2023-03-02T02:23:38.784Z,-1.89
2023-03-02T02:24:38.772Z,-1.90
2023-03-02T02:25:38.736Z,-1.94
2023-03-02T02:26:38.738Z,-1.98
2023-03-02T02:27:38.708Z,-2.00
2023-03-02T02:28:38.717Z,-2.05
2023-03-02T02:29:38.732Z,-2.05
2023-03-02T02:30:38.678Z,-2.07
2023-03-02T02:31:38.741Z,-2.04
2023-03-02T02:32:38.719Z,-2.04
2023-03-02T02:33:38.628Z,-2.02
2023-03-02T02:34:38.658Z,-2.01
2023-03-02T02:35:38.791Z,-2.02
2023-03-02T02:36:38.629Z,-2.02
2023-03-02T02:37:38.583Z,-2.02
2023-03-02T02:38:38.591Z,-2.02
2023-03-02T02:39:38.564Z,-2.04
2023-03-02T02:40:38.584Z,-2.05
2023-03-02T02:41:38.542Z,-2.05
2023-03-02T02:42:38.533Z,-2.07
2023-03-02T02:43:38.533Z,-2.05
2023-03-02T02:44:38.518Z,-2.07
2023-03-02T02:45:38.574Z,-2.08
2023-03-02T02:46:38.472Z,-2.10
2023-03-02T02:47:38.456Z,-2.08
2023-03-02T02:48:38.439Z,-2.08
2023-03-02T02:49:38.470Z,-2.08
2023-03-02T02:50:38.464Z,-2.08
2023-03-02T02:51:38.405Z,-2.08
2023-03-02T02:52:38.391Z,-2.10
2023-03-02T02:53:38.399Z,-2.10
2023-03-02T02:54:38.392Z,-2.12
2023-03-02T02:55:38.360Z,-2.10
2023-03-02T02:56:38.342Z,-2.08
2023-03-02T02:57:38.364Z,-2.10
2023-03-02T02:58:38.302Z,-2.08
2023-03-02T02:59:38.327Z,-2.10
2023-03-02T03:00:38.296Z,-2.12
2023-03-02T03:01:38.285Z,-2.13
2023-03-02T03:02:38.266Z,-2.13
2023-03-02T03:03:38.278Z,-2.16
2023-03-02T03:04:38.394Z,-2.19
2023-03-02T03:05:38.217Z,-2.19
2023-03-02T03:06:38.253Z,-2.21
2023-03-02T03:07:38.204Z,-2.21
2023-03-02T03:08:38.217Z,-2.19
2023-03-02T03:09:38.271Z,-2.19
2023-03-02T03:10:38.165Z,-2.19
2023-03-02T03:11:38.133Z,-2.21
2023-03-02T03:12:38.125Z,-2.21
2023-03-02T03:13:38.130Z,-2.19
2023-03-02T03:14:38.117Z,-2.18
2023-03-02T03:15:38.094Z,-2.16
2023-03-02T03:16:38.091Z,-2.15
2023-03-02T03:17:38.062Z,-2.13
2023-03-02T03:18:38.114Z,-2.13
2023-03-02T03:19:38.064Z,-2.15
2023-03-02T03:20:38.056Z,-2.13
2023-03-02T03:21:38.022Z,-2.13
2023-03-02T03:22:38.005Z,-2.12
2023-03-02T03:23:37.988Z,-2.10
2023-03-02T03:24:37.968Z,-2.10
2023-03-02T03:25:37.980Z,-2.15
2023-03-02T03:26:37.953Z,-2.12
2023-03-02T03:27:37.931Z,-2.13
2023-03-02T03:28:37.907Z,-2.13
2023-03-02T03:29:37.927Z,-2.16
2023-03-02T03:30:37.966Z,-2.19
2023-03-02T03:31:37.893Z,-2.21
2023-03-02T03:32:37.862Z,-2.25
2023-03-02T03:33:37.876Z,-2.23
2023-03-02T03:34:37.833Z,-2.23
2023-03-02T03:35:37.856Z,-2.26
2023-03-02T03:36:37.814Z,-2.32
2023-03-02T03:37:37.789Z,-2.34
2023-03-02T03:38:37.813Z,-2.38
2023-03-02T03:39:37.779Z,-2.40
2023-03-02T03:40:37.787Z,-2.40
2023-03-02T03:41:37.798Z,-2.38
2023-03-02T03:42:37.723Z,-2.37
2023-03-02T03:43:37.721Z,-2.34
2023-03-02T03:44:37.698Z,-2.32
2023-03-02T03:45:37.711Z,-2.32
2023-03-02T03:46:37.709Z,-2.30
2023-03-02T03:47:37.666Z,-2.26
2023-03-02T03:48:37.643Z,-2.25
2023-03-02T03:49:37.669Z,-2.22
2023-03-02T03:50:37.640Z,-2.21
2023-03-02T03:51:37.610Z,-2.18
2023-03-02T03:52:37.600Z,-2.16
2023-03-02T03:53:37.610Z,-2.16
2023-03-02T03:54:37.606Z,-2.18
2023-03-02T03:55:37.569Z,-2.19
2023-03-02T03:56:37.547Z,-2.16
2023-03-02T03:57:37.539Z,-2.19
2023-03-02T03:58:37.577Z,-2.21
2023-03-02T03:59:37.520Z,-2.22
2023-03-02T04:00:37.518Z,-2.22
2023-03-02T04:01:37.558Z,-2.25
2023-03-02T04:02:37.514Z,-2.25
2023-03-02T04:03:37.448Z,-2.30
2023-03-02T04:04:37.433Z,-2.28
2023-03-02T04:05:37.490Z,-2.32
2023-03-02T04:06:37.408Z,-2.35
2023-03-02T04:07:37.401Z,-2.37
2023-03-02T04:08:37.406Z,-2.40
2023-03-02T04:09:37.379Z,-2.38
2023-03-02T04:10:37.391Z,-2.38
2023-03-02T04:11:37.354Z,-2.38
2023-03-02T04:12:37.323Z,-2.40
2023-03-02T04:13:37.326Z,-2.41
2023-03-02T04:14:37.345Z,-2.42
2023-03-02T04:15:37.338Z,-2.42
2023-03-02T04:16:37.285Z,-2.42
2023-03-02T04:17:37.313Z,-2.41
2023-03-02T04:18:37.255Z,-2.40
2023-03-02T04:19:37.244Z,-2.37
2023-03-02T04:20:37.235Z,-2.37
2023-03-02T04:21:37.218Z,-2.37
2023-03-02T04:22:37.268Z,-2.38
2023-03-02T04:23:37.183Z,-2.40
2023-03-02T04:24:37.175Z,-2.41
2023-03-02T04:25:37.198Z,-2.41
2023-03-02T04:26:37.147Z,-2.42
2023-03-02T04:27:37.139Z,-2.42
2023-03-02T04:28:37.151Z,-2.42
2023-03-02T04:29:37.154Z,-2.41
2023-03-02T04:30:37.121Z,-2.41
2023-03-02T04:31:37.106Z,-2.38
2023-03-02T04:32:37.078Z,-2.38
2023-03-02T04:33:37.117Z,-2.37
2023-03-02T04:34:37.126Z,-2.38
2023-03-02T04:35:37.097Z,-2.35
2023-03-02T04:36:37.445Z,-2.37
2023-03-02T04:37:37.030Z,-2.35
2023-03-02T04:38:37.040Z,-2.34
2023-03-02T04:39:36.999Z,-2.32
2023-03-02T04:40:36.987Z,-2.32
2023-03-02T04:41:36.990Z,-2.32
2023-03-02T04:42:36.998Z,-2.35
2023-03-02T04:43:36.939Z,-2.37
2023-03-02T04:44:36.931Z,-2.37
2023-03-02T04:45:36.925Z,-2.34
2023-03-02T04:46:37.173Z,-2.37
2023-03-02T04:47:36.896Z,-2.38
2023-03-02T04:48:36.906Z,-2.38
2023-03-02T04:49:36.858Z,-2.37
2023-03-02T04:50:36.858Z,-2.37
2023-03-02T04:51:36.870Z,-2.35
2023-03-02T04:52:36.827Z,-2.35
2023-03-02T04:53:36.813Z,-2.38
2023-03-02T04:54:36.827Z,-2.41
2023-03-02T04:55:36.789Z,-2.41
2023-03-02T04:56:36.810Z,-2.44
2023-03-02T04:57:36.807Z,-2.44
2023-03-02T04:58:36.743Z,-2.44
2023-03-02T04:59:36.725Z,-2.45
2023-03-02T05:00:36.732Z,-2.44
2023-03-02T05:01:36.708Z,-2.47
2023-03-02T05:02:36.792Z,-2.47
2023-03-02T05:03:36.720Z,-2.47
2023-03-02T05:04:36.799Z,-2.47
2023-03-02T05:05:36.661Z,-2.48
2023-03-02T05:06:36.638Z,-2.48
2023-03-02T05:07:36.658Z,-2.50
2023-03-02T05:08:36.635Z,-2.52
2023-03-02T05:09:36.624Z,-2.52
2023-03-02T05:10:36.626Z,-2.53
2023-03-02T05:11:36.578Z,-2.53
2023-03-02T05:12:36.585Z,-2.52
2023-03-02T05:13:36.561Z,-2.55
2023-03-02T05:14:36.546Z,-2.55
2023-03-02T05:15:36.541Z,-2.60
2023-03-02T05:16:37.069Z,-2.69
2023-03-02T05:17:36.509Z,-2.70
2023-03-02T05:18:36.499Z,-2.69
2023-03-02T05:19:36.510Z,-2.66
2023-03-02T05:20:36.465Z,-2.63
2023-03-02T05:21:36.450Z,-2.62
2023-03-02T05:22:36.461Z,-2.60
2023-03-02T05:23:36.431Z,-2.62
2023-03-02T05:24:36.418Z,-2.62
2023-03-02T05:25:36.403Z,-2.63
2023-03-02T05:26:36.407Z,-2.63
2023-03-02T05:27:36.388Z,-2.66
2023-03-02T05:28:36.350Z,-2.65
2023-03-02T05:29:36.348Z,-2.63
2023-03-02T05:30:36.328Z,-2.62
2023-03-02T05:31:36.427Z,-2.62
2023-03-02T05:32:36.439Z,-2.62
2023-03-02T05:33:36.298Z,-2.63
2023-03-02T05:34:36.284Z,-2.65
2023-03-02T05:35:36.295Z,-2.65
2023-03-02T05:36:36.784Z,-2.65
2023-03-02T05:37:36.255Z,-2.63
2023-03-02T05:38:36.253Z,-2.65
2023-03-02T05:39:36.239Z,-2.63
2023-03-02T05:40:36.200Z,-2.63
2023-03-02T05:41:36.187Z,-2.65
2023-03-02T05:42:36.189Z,-2.66
2023-03-02T05:43:36.196Z,-2.66
2023-03-02T05:44:36.167Z,-2.69
2023-03-02T05:45:36.148Z,-2.69
2023-03-02T05:46:36.600Z,-2.69
2023-03-02T05:47:36.112Z,-2.70
2023-03-02T05:48:36.098Z,-2.71
2023-03-02T05:49:36.136Z,-2.66
2023-03-02T05:50:36.057Z,-2.65
2023-03-02T05:51:36.062Z,-2.66
2023-03-02T05:52:36.050Z,-2.69
2023-03-02T05:53:36.051Z,-2.69
2023-03-02T05:54:36.024Z,-2.66
2023-03-02T05:55:36.010Z,-2.66
2023-03-02T05:56:36.151Z,-2.69
2023-03-02T05:57:35.993Z,-2.66
2023-03-02T05:58:35.966Z,-2.65
2023-03-02T05:59:35.977Z,-2.65
2023-03-02T06:00:36.026Z,-2.63
2023-03-02T06:01:36.188Z,-2.62
2023-03-02T06:02:35.922Z,-2.60
2023-03-02T06:03:35.900Z,-2.60
2023-03-02T06:04:35.887Z,-2.58
2023-03-02T06:05:35.913Z,-2.55
2023-03-02T06:06:36.233Z,-2.55
2023-03-02T06:07:35.846Z,-2.56
2023-03-02T06:08:35.840Z,-2.55
2023-03-02T06:09:35.844Z,-2.55
2023-03-02T06:10:35.795Z,-2.58
2023-03-02T06:11:35.832Z,-2.58
2023-03-02T06:12:35.787Z,-2.56
2023-03-02T06:13:35.773Z,-2.58
2023-03-02T06:14:35.788Z,-2.56
2023-03-02T06:15:35.753Z,-2.58
2023-03-02T06:16:36.188Z,-2.58
2023-03-02T06:17:35.757Z,-2.59
2023-03-02T06:18:35.768Z,-2.59
2023-03-02T06:19:35.713Z,-2.58
2023-03-02T06:20:35.699Z,-2.58
2023-03-02T06:21:35.696Z,-2.58
2023-03-02T06:22:35.652Z,-2.56
2023-03-02T06:23:35.648Z,-2.53
2023-03-02T06:24:35.642Z,-2.52
2023-03-02T06:25:35.632Z,-2.48
2023-03-02T06:26:35.607Z,-2.44
2023-03-02T06:27:35.577Z,-2.41
2023-03-02T06:28:49.840Z,-2.42
2023-03-02T06:29:35.578Z,-2.38
2023-03-02T06:30:35.566Z,-2.38
2023-03-02T06:31:35.540Z,-2.37
2023-03-02T06:32:35.605Z,-2.37
2023-03-02T06:33:35.541Z,-2.38
2023-03-02T06:34:35.563Z,-2.40
2023-03-02T06:35:35.628Z,-2.41
2023-03-02T06:36:35.909Z,-2.44
2023-03-02T06:37:35.460Z,-2.42
2023-03-02T06:38:35.463Z,-2.42
2023-03-02T06:39:35.447Z,-2.41
2023-03-02T06:40:35.413Z,-2.42
2023-03-02T06:41:35.414Z,-2.40
2023-03-02T06:42:35.406Z,-2.37
2023-03-02T06:43:35.367Z,-2.34
2023-03-02T06:44:35.384Z,-2.30
2023-03-02T06:45:35.389Z,-2.28
2023-03-02T06:46:35.557Z,-2.28
2023-03-02T06:47:35.363Z,-2.26
2023-03-02T06:48:35.349Z,-2.23
2023-03-02T06:49:35.296Z,-2.22
2023-03-02T06:50:35.319Z,-2.21
2023-03-02T06:51:35.275Z,-2.18
2023-03-02T06:52:35.292Z,-2.16
2023-03-02T06:53:35.255Z,-2.15
2023-03-02T06:54:35.270Z,-2.12
2023-03-02T06:55:35.231Z,-2.10
2023-03-02T06:56:35.492Z,-2.07
2023-03-02T06:57:35.204Z,-2.02
2023-03-02T06:58:35.178Z,-2.00
2023-03-02T06:59:35.198Z,-1.95
2023-03-02T07:00:35.159Z,-1.94
2023-03-02T07:01:35.545Z,-1.90
2023-03-02T07:02:35.151Z,-1.86
2023-03-02T07:03:35.151Z,-1.83
2023-03-02T07:04:35.106Z,-1.80
2023-03-02T07:05:35.089Z,-1.74
2023-03-02T07:06:35.093Z,-1.71
2023-03-02T07:07:35.077Z,-1.65
2023-03-02T07:08:35.103Z,-1.62
2023-03-02T07:09:35.059Z,-1.56
2023-03-02T07:10:35.019Z,-1.50
2023-03-02T07:11:35.229Z,-1.46
2023-03-02T07:12:35.002Z,-1.44
2023-03-02T07:13:35.010Z,-1.40
2023-03-02T07:14:34.977Z,-1.37
2023-03-02T07:15:34.948Z,-1.33
2023-03-02T07:16:35.066Z,-1.30
2023-03-02T07:17:34.941Z,-1.27
2023-03-02T07:18:34.922Z,-1.23
2023-03-02T07:19:34.899Z,-1.19
2023-03-02T07:20:34.896Z,-1.14
2023-03-02T07:21:35.239Z,-1.11
2023-03-02T07:22:34.868Z,-1.04
2023-03-02T07:23:34.899Z,-1.01
2023-03-02T07:24:34.869Z,-0.94
2023-03-02T07:25:34.857Z,-0.90
2023-03-02T07:26:34.850Z,-0.83
2023-03-02T07:27:34.811Z,-0.75
2023-03-02T07:28:34.801Z,-0.68
2023-03-02T07:29:34.772Z,-0.62
2023-03-02T07:30:34.804Z,-0.56
2023-03-02T07:31:35.156Z,-0.52
2023-03-02T07:32:34.825Z,-0.46
2023-03-02T07:33:34.739Z,-0.39
2023-03-02T07:34:34.733Z,-0.32
2023-03-02T07:35:34.752Z,-0.23
2023-03-02T07:36:34.689Z,-0.14
2023-03-02T07:37:34.686Z,-0.07
2023-03-02T07:38:34.668Z,0.01
2023-03-02T07:39:34.655Z,0.10
2023-03-02T07:40:34.632Z,0.15
2023-03-02T07:41:35.080Z,0.23
2023-03-02T07:42:34.600Z,0.29
2023-03-02T07:43:34.610Z,0.37
2023-03-02T07:44:34.578Z,0.46
2023-03-02T07:45:34.575Z,0.55
2023-03-02T07:46:34.647Z,0.63
2023-03-02T07:47:34.562Z,0.66
2023-03-02T07:48:34.539Z,0.77
2023-03-02T07:49:34.510Z,0.84
2023-03-02T07:50:34.519Z,0.92
2023-03-02T07:51:34.761Z,0.98
2023-03-02T07:52:34.526Z,1.06
2023-03-02T07:53:34.461Z,1.16
2023-03-02T07:54:34.491Z,1.26
2023-03-02T07:55:34.465Z,1.37
2023-03-02T07:56:34.418Z,1.48
2023-03-02T07:57:34.452Z,1.55
2023-03-02T07:58:35.381Z,1.62
2023-03-02T07:59:34.400Z,1.66
2023-03-02T08:00:34.375Z,1.74
2023-03-02T08:01:34.784Z,1.81
2023-03-02T08:02:34.402Z,1.88
2023-03-02T08:03:34.326Z,1.95
2023-03-02T08:04:34.312Z,2.06
2023-03-02T08:05:34.299Z,2.15
2023-03-02T08:06:34.292Z,2.22
2023-03-02T08:07:34.297Z,2.32
2023-03-02T08:08:34.260Z,2.38
2023-03-02T08:09:34.259Z,2.47
2023-03-02T08:10:34.241Z,2.56
2023-03-02T08:11:34.663Z,2.69
2023-03-02T08:12:34.263Z,2.79
2023-03-02T08:13:34.210Z,2.87
2023-03-02T08:14:34.205Z,3.00
2023-03-02T08:15:34.185Z,3.10
2023-03-02T08:16:34.273Z,3.18
2023-03-02T08:17:34.184Z,3.25
2023-03-02T08:18:34.121Z,3.31
2023-03-02T08:19:34.119Z,3.36
2023-03-02T08:20:34.127Z,3.41
2023-03-02T08:21:34.521Z,3.44
2023-03-02T08:22:34.111Z,3.47
2023-03-02T08:23:34.170Z,3.47
2023-03-02T08:24:34.058Z,3.45
2023-03-02T08:25:34.039Z,3.48
2023-03-02T08:26:34.054Z,3.53
2023-03-02T08:27:34.029Z,3.56
2023-03-02T08:28:34.005Z,3.58
2023-03-02T08:29:34.011Z,3.56
2023-03-02T08:30:33.973Z,3.53
2023-03-02T08:31:34.410Z,3.40
2023-03-02T08:32:34.016Z,3.22
2023-03-02T08:33:33.960Z,3.13
2023-03-02T08:34:33.911Z,2.98
2023-03-02T08:35:33.933Z,2.86
2023-03-02T08:36:34.263Z,2.77
2023-03-02T08:37:33.914Z,2.71
2023-03-02T08:38:33.868Z,2.65
2023-03-02T08:39:33.886Z,2.62
2023-03-02T08:40:33.844Z,2.57
2023-03-02T08:41:34.190Z,2.54
2023-03-02T08:42:33.816Z,2.50
2023-03-02T08:43:33.823Z,2.49
2023-03-02T08:44:33.809Z,2.42
2023-03-02T08:45:33.769Z,2.39
2023-03-02T08:46:33.761Z,2.38
2023-03-02T08:47:33.743Z,2.36
2023-03-02T08:48:33.843Z,2.35
2023-03-02T08:49:33.714Z,2.35
2023-03-02T08:50:33.708Z,2.35
2023-03-02T08:51:34.007Z,2.38
2023-03-02T08:52:33.684Z,2.44
2023-03-02T08:53:33.684Z,2.47
2023-03-02T08:54:33.660Z,2.53
2023-03-02T08:55:33.648Z,2.56
2023-03-02T08:56:34.108Z,2.61
2023-03-02T08:57:33.617Z,2.65
2023-03-02T08:58:33.616Z,2.71
2023-03-02T08:59:33.577Z,2.71
2023-03-02T09:00:33.571Z,2.71
2023-03-02T09:01:33.973Z,2.71
2023-03-02T09:02:33.745Z,2.69
2023-03-02T09:03:33.515Z,2.74
2023-03-02T09:04:33.591Z,2.83
2023-03-02T09:05:33.508Z,2.93
2023-03-02T09:06:33.494Z,3.04
2023-03-02T09:07:33.483Z,3.14
2023-03-02T09:08:33.477Z,3.23
2023-03-02T09:09:33.481Z,3.34
2023-03-02T09:10:33.444Z,3.45
2023-03-02T09:11:33.781Z,3.53
2023-03-02T09:12:33.407Z,3.63
2023-03-02T09:13:33.396Z,3.74
2023-03-02T09:14:33.403Z,3.87
2023-03-02T09:15:33.391Z,3.95
2023-03-02T09:16:33.451Z,4.01
2023-03-02T09:17:33.372Z,4.01
2023-03-02T09:18:33.322Z,3.99
2023-03-02T09:19:33.341Z,4.12
2023-03-02T09:20:33.313Z,4.24
2023-03-02T09:21:33.715Z,4.41
2023-03-02T09:22:33.300Z,4.52
2023-03-02T09:23:33.282Z,4.71
2023-03-02T09:24:33.259Z,4.89
2023-03-02T09:25:33.277Z,5.07
2023-03-02T09:26:33.240Z,5.23
2023-03-02T09:27:33.239Z,5.36
2023-03-02T09:28:33.207Z,5.41
2023-03-02T09:29:33.212Z,5.48
2023-03-02T09:30:33.174Z,5.50
2023-03-02T09:31:33.542Z,5.51
2023-03-02T09:32:33.354Z,5.53
2023-03-02T09:33:33.127Z,5.66
2023-03-02T09:34:33.122Z,5.80
2023-03-02T09:35:33.132Z,5.93
2023-03-02T09:36:33.121Z,6.01
2023-03-02T09:37:33.078Z,6.04
2023-03-02T09:38:33.049Z,6.22
2023-03-02T09:39:33.046Z,6.41
2023-03-02T09:40:33.036Z,6.60
2023-03-02T09:41:33.357Z,6.77
2023-03-02T09:42:43.599Z,6.93
2023-03-02T09:43:32.992Z,7.10
2023-03-02T09:44:32.997Z,7.23
2023-03-02T09:45:33.032Z,7.33
2023-03-02T09:46:32.958Z,7.35
2023-03-02T09:47:35.750Z,7.39
2023-03-02T09:48:32.937Z,7.24
2023-03-02T09:49:32.909Z,7.29
2023-03-02T09:50:32.918Z,7.23
2023-03-02T09:51:33.269Z,7.32
2023-03-02T09:52:32.909Z,7.42
2023-03-02T09:53:32.848Z,7.53
2023-03-02T09:54:32.894Z,7.70
2023-03-02T09:55:32.843Z,7.77
2023-03-02T09:56:33.109Z,7.93
2023-03-02T09:57:32.817Z,8.03
2023-03-02T09:58:32.784Z,8.05
2023-03-02T09:59:32.780Z,8.08
2023-03-02T10:00:32.758Z,8.23
2023-03-02T10:01:32.742Z,8.48
2023-03-02T10:02:32.774Z,8.60
2023-03-02T10:03:32.849Z,8.76
2023-03-02T10:04:32.856Z,8.89
2023-03-02T10:05:32.696Z,9.00
2023-03-02T10:06:33.054Z,8.97
2023-03-02T10:07:32.692Z,8.97
2023-03-02T10:08:32.685Z,8.95
2023-03-02T10:09:32.644Z,8.87
2023-03-02T10:10:32.642Z,8.87
2023-03-02T10:11:32.624Z,8.94
2023-03-02T10:12:32.601Z,9.04
2023-03-02T10:13:32.620Z,9.04
2023-03-02T10:14:32.563Z,9.16
2023-03-02T10:15:32.575Z,9.23
2023-03-02T10:16:33.079Z,9.37
2023-03-02T10:17:32.508Z,9.47
2023-03-02T10:18:32.568Z,9.54
2023-03-02T10:19:32.561Z,9.48
2023-03-02T10:20:35.541Z,9.55
2023-03-02T10:21:32.491Z,9.72
2023-03-02T10:22:32.449Z,9.83
2023-03-02T10:23:32.464Z,9.87
2023-03-02T10:24:32.451Z,9.89
2023-03-02T10:25:32.470Z,9.94
2023-03-02T10:26:32.703Z,10.12
2023-03-02T10:27:32.428Z,10.15
2023-03-02T10:28:32.374Z,10.23
2023-03-02T10:29:32.380Z,10.33
2023-03-02T10:30:32.392Z,10.31
2023-03-02T10:31:32.332Z,10.40
2023-03-02T10:32:32.445Z,10.37
2023-03-02T10:33:32.300Z,10.23
2023-03-02T10:34:32.308Z,10.20
2023-03-02T10:35:32.367Z,10.38
2023-03-02T10:36:32.314Z,10.48
2023-03-02T10:37:32.325Z,10.63
2023-03-02T10:38:32.237Z,10.76
2023-03-02T10:39:32.217Z,10.92
2023-03-02T10:40:32.215Z,11.11
2023-03-02T10:41:32.226Z,11.25
2023-03-02T10:42:32.367Z,11.40
2023-03-02T10:43:32.192Z,11.37
2023-03-02T10:44:32.160Z,11.48
2023-03-02T10:45:32.133Z,11.55
2023-03-02T10:46:32.628Z,11.62
2023-03-02T10:47:32.100Z,11.72
2023-03-02T10:48:32.140Z,11.63
2023-03-02T10:49:32.171Z,11.66
2023-03-02T10:50:32.088Z,11.80
2023-03-02T10:51:32.085Z,11.99
2023-03-02T10:52:32.119Z,12.09
2023-03-02T10:53:32.034Z,12.17
2023-03-02T10:54:32.032Z,12.13
2023-03-02T10:55:32.018Z,12.10
2023-03-02T10:56:32.392Z,11.95
2023-03-02T10:57:32.022Z,11.94
2023-03-02T10:58:32.045Z,11.94
2023-03-02T10:59:31.955Z,12.03
2023-03-02T11:00:31.941Z,11.91
2023-03-02T11:01:31.973Z,11.95
2023-03-02T11:02:31.937Z,12.03
2023-03-02T11:03:31.892Z,12.04
2023-03-02T11:04:31.965Z,12.20
2023-03-02T11:05:31.903Z,12.31
2023-03-02T11:06:32.264Z,12.50
2023-03-02T11:07:31.844Z,12.67
2023-03-02T11:08:31.844Z,12.85
2023-03-02T11:09:31.825Z,12.95
2023-03-02T11:10:31.823Z,12.91
2023-03-02T11:11:32.541Z,12.62
2023-03-02T11:12:31.791Z,12.50
2023-03-02T11:13:31.806Z,12.29
2023-03-02T11:14:31.750Z,12.39
2023-03-02T11:15:31.725Z,12.45
2023-03-02T11:16:31.834Z,12.64
2023-03-02T11:17:31.735Z,12.85
2023-03-02T11:18:31.714Z,12.94
2023-03-02T11:19:31.702Z,12.91
2023-03-02T11:20:31.765Z,12.93
2023-03-02T11:21:32.089Z,13.01
2023-03-02T11:22:31.640Z,13.13
2023-03-02T11:23:31.637Z,13.16
2023-03-02T11:24:31.600Z,13.25
2023-03-02T11:25:31.611Z,13.19
2023-03-02T11:26:31.618Z,13.13
2023-03-02T11:27:31.612Z,13.08
2023-03-02T11:28:31.561Z,13.03
2023-03-02T11:29:31.537Z,13.13
2023-03-02T11:30:31.527Z,13.23
2023-03-02T11:31:31.892Z,13.42
2023-03-02T11:32:31.645Z,13.67
2023-03-02T11:33:32.477Z,13.85
2023-03-02T11:34:31.508Z,14.00
2023-03-02T11:35:31.559Z,14.15
2023-03-02T11:36:31.449Z,14.20
2023-03-02T11:37:31.450Z,14.15
2023-03-02T11:38:31.422Z,13.97
2023-03-02T11:39:31.435Z,14.05
2023-03-02T11:40:31.411Z,13.77
2023-03-02T11:41:31.662Z,13.57
2023-03-02T11:42:31.494Z,13.62
2023-03-02T11:43:31.371Z,13.68
2023-03-02T11:44:31.335Z,13.77
2023-03-02T11:45:31.371Z,13.77
2023-03-02T11:46:31.380Z,13.78
2023-03-02T11:47:31.310Z,13.87
2023-03-02T11:48:31.301Z,13.96
2023-03-02T11:49:31.296Z,13.93
2023-03-02T11:50:31.309Z,13.75
2023-03-02T11:51:31.742Z,13.68
2023-03-02T11:52:31.243Z,13.63
2023-03-02T11:53:31.251Z,13.53
2023-03-02T11:54:31.218Z,13.50
2023-03-02T11:55:31.220Z,13.41
2023-03-02T11:56:31.217Z,13.50
2023-03-02T11:57:31.170Z,13.49
2023-03-02T11:58:31.161Z,13.47
2023-03-02T11:59:31.131Z,13.44
2023-03-02T12:00:31.137Z,13.42
2023-03-02T12:01:31.202Z,13.47
2023-03-02T12:02:31.108Z,13.50
2023-03-02T12:03:31.091Z,13.56
2023-03-02T12:04:31.089Z,13.56
2023-03-02T12:05:31.201Z,13.81
2023-03-02T12:06:31.270Z,13.89
2023-03-02T12:07:31.049Z,13.87
2023-03-02T12:08:31.011Z,13.99
2023-03-02T12:09:31.338Z,13.99
2023-03-02T12:10:31.001Z,14.07
2023-03-02T12:11:30.991Z,14.14
2023-03-02T12:12:30.965Z,13.99
2023-03-02T12:13:30.981Z,13.85
2023-03-02T12:14:30.943Z,13.89
2023-03-02T12:15:30.910Z,14.07
2023-03-02T12:16:31.449Z,14.15
2023-03-02T12:17:30.939Z,14.18
2023-03-02T12:18:30.886Z,14.11
2023-03-02T12:19:30.874Z,13.93
2023-03-02T12:20:30.865Z,14.04
2023-03-02T12:21:30.838Z,13.97
2023-03-02T12:22:30.828Z,13.95
2023-03-02T12:23:30.833Z,13.96
2023-03-02T12:24:30.807Z,13.85
2023-03-02T12:25:30.810Z,13.85
2023-03-02T12:26:31.325Z,14.04
2023-03-02T12:27:30.811Z,14.10
2023-03-02T12:28:30.864Z,14.25
2023-03-02T12:29:30.733Z,14.30
2023-03-02T12:30:30.732Z,14.36
2023-03-02T12:31:30.732Z,14.40
2023-03-02T12:32:30.757Z,14.35
2023-03-02T12:33:30.749Z,14.36
2023-03-02T12:34:31.360Z,14.41
2023-03-02T12:35:30.674Z,14.32
2023-03-02T12:36:30.741Z,13.99
2023-03-02T12:37:30.617Z,13.92
2023-03-02T12:38:30.707Z,13.93
2023-03-02T12:39:30.592Z,13.99
2023-03-02T12:40:30.605Z,14.03
2023-03-02T12:41:30.602Z,13.89
2023-03-02T12:42:30.570Z,13.89
2023-03-02T12:43:30.572Z,14.00
2023-03-02T12:44:30.523Z,14.03
2023-03-02T12:45:30.593Z,13.96
2023-03-02T12:46:30.594Z,14.05
2023-03-02T12:47:30.994Z,14.12
2023-03-02T12:48:30.529Z,14.07
2023-03-02T12:49:30.492Z,14.05
2023-03-02T12:50:30.470Z,14.03
2023-03-02T12:51:30.637Z,13.97
2023-03-02T12:52:30.455Z,13.87
2023-03-02T12:53:30.417Z,13.81
2023-03-02T12:54:30.457Z,13.70
2023-03-02T12:55:30.401Z,13.60
2023-03-02T12:56:30.377Z,13.54
2023-03-02T12:57:30.452Z,13.56
2023-03-02T12:58:30.357Z,13.67